Ravenna, Ohio
Current Conditions -  °F | °C
As of 11:37 PM on Friday 24 Oct 2014 (Local Time) from KPOV Reporting Station
Overcast Overcast  
Wind Chill:   Ceiling: 4500
Heat Index:   Visibility: 10mi
Dew Point:   Wind: 0mph
Humidity: 74%   Direction: NA
Pressure: 29.99"   Gusts: NA
Location:  41.16°N, 81.24°W
Report Text: KPOV 250337Z AUTO 00000KT 10SM OVC045 09/05 A2999 RMK AO2 T00900045
Loading
Personal Weather Stations






























Interactive Weather Map
Tropical Storm Tracking
New forecast layout! Learn more

10-Day Weather Forecast

Advertisements
Track Severe Weather on mobile